Time,TemperatureF,DewpointF,PressureIn,WindDirection,WindDirectionDegrees,WindSpeedMPH,WindSpeedGustMPH,Humidity,HourlyPrecipIn,Conditions,Clouds,dailyrainin,SoftwareType,DateUTC
2013-07-25 02:12:00,63.0,63.0,-100.00,NW,305,0.0,0.0,99,-99.99,,,-99.99,,2013-07-25 07:12:00,
2013-07-25 02:22:00,63.0,63.0,-100.00,NW,305,0.0,0.0,99,-99.99,,,-99.99,,2013-07-25 07:22:00,
2013-07-25 02:43:00,63.0,62.0,-100.00,East,80,0.0,0.0,99,-99.99,,,-99.99,,2013-07-25 07:43:00,
2013-07-25 02:53:00,63.0,62.0,-100.00,East,80,0.0,0.0,99,-99.99,,,-99.99,,2013-07-25 07:53:00,
2013-07-25 03:12:00,61.0,61.0,-100.00,East,90,0.0,0.0,99,-99.99,,,-99.99,,2013-07-25 08:12:00,
2013-07-25 03:22:00,61.0,61.0,-100.00,East,90,0.0,0.0,99,-99.99,,,-99.99,,2013-07-25 08:22:00,
2013-07-25 03:52:00,61.0,60.0,-100.00,ESE,110,0.0,0.0,99,-99.99,,,-99.99,,2013-07-25 08:52:00,
2013-07-25 04:02:00,61.0,60.0,-100.00,SSW,195,0.0,0.0,99,-99.99,,,-99.99,,2013-07-25 09:02:00,
2013-07-25 04:12:00,61.0,60.0,-100.00,SW,225,0.0,0.0,99,-99.99,,,-99.99,,2013-07-25 09:12:00,
2013-07-25 04:22:00,61.0,60.0,-100.00,SW,225,0.0,0.0,99,-99.99,,,-99.99,,2013-07-25 09:22:00,
2013-07-25 04:43:00,61.0,61.0,-100.00,East,95,0.0,0.0,99,-99.99,,,-99.99,,2013-07-25 09:43:00,
2013-07-25 04:53:00,61.0,61.0,-100.00,East,95,0.0,0.0,99,-99.99,,,-99.99,,2013-07-25 09:53:00,
2013-07-25 05:12:00,61.0,61.0,-100.00,NE,55,0.0,0.0,99,-99.99,,,-99.99,,2013-07-25 10:12:00,
2013-07-25 05:22:00,61.0,61.0,-100.00,NE,55,0.0,0.0,99,-99.99,,,-99.99,,2013-07-25 10:22:00,
2013-07-25 05:32:00,61.0,61.0,-100.00,SE,130,0.0,0.0,99,-99.99,,,-99.99,,2013-07-25 10:32:00,
2013-07-25 05:42:00,61.0,60.0,-100.00,North,0,0.0,0.0,99,-99.99,,,-99.99,,2013-07-25 10:42:00,
2013-07-25 05:53:00,61.0,60.0,-100.00,North,0,0.0,0.0,99,-99.99,,,-99.99,,2013-07-25 10:53:00,
2013-07-25 06:12:00,60.0,60.0,-100.00,NNW,340,0.0,0.0,99,-99.99,,,-99.99,,2013-07-25 11:12:00,
2013-07-25 06:22:00,60.0,60.0,-100.00,NNW,340,0.0,0.0,99,-99.99,,,-99.99,,2013-07-25 11:22:00,
2013-07-25 06:43:00,60.0,60.0,-100.00,SE,140,0.0,0.0,99,-99.99,,,-99.99,,2013-07-25 11:43:00,
2013-07-25 06:52:00,60.0,60.0,-100.00,SE,140,0.0,0.0,99,-99.99,,,-99.99,,2013-07-25 11:52:00,
2013-07-25 07:12:00,60.0,60.0,-100.00,ESE,105,0.0,0.0,99,-99.99,,,-99.99,,2013-07-25 12:12:00,
2013-07-25 07:22:00,60.0,60.0,-100.00,ESE,105,0.0,0.0,99,-99.99,,,-99.99,,2013-07-25 12:22:00,
2013-07-25 07:45:00,62.0,62.0,-100.00,East,100,0.0,0.0,99,-99.99,,,-99.99,,2013-07-25 12:45:00,
2013-07-25 07:53:00,62.0,62.0,-100.00,East,100,0.0,0.0,99,-99.99,,,-99.99,,2013-07-25 12:53:00,
2013-07-25 08:12:00,65.0,64.0,-100.00,SE,125,0.0,0.0,99,-99.99,,,-99.99,,2013-07-25 13:12:00,
2013-07-25 08:22:00,65.0,64.0,-100.00,SE,125,0.0,0.0,99,-99.99,,,-99.99,,2013-07-25 13:22:00,
2013-07-25 08:43:00,68.0,59.0,-100.00,SSE,160,0.0,0.0,73,-99.99,,,-99.99,,2013-07-25 13:43:00,
2013-07-25 08:53:00,68.0,59.0,-100.00,SSE,160,0.0,0.0,73,-99.99,,,-99.99,,2013-07-25 13:53:00,
2013-07-25 09:02:00,68.0,59.0,-100.00,SSE,160,0.0,0.0,73,-99.99,,,-99.99,,2013-07-25 14:02:00,
2013-07-25 09:12:00,71.0,59.0,-100.00,SE,135,0.0,0.0,67,-99.99,,,-99.99,,2013-07-25 14:12:00,
2013-07-25 09:22:00,71.0,59.0,-100.00,SE,135,0.0,0.0,67,-99.99,,,-99.99,,2013-07-25 14:22:00,
2013-07-25 09:43:00,75.0,62.0,-100.00,SE,140,0.0,0.0,64,-99.99,,,-99.99,,2013-07-25 14:43:00,
2013-07-25 09:53:00,75.0,62.0,-100.00,SE,140,0.0,0.0,64,-99.99,,,-99.99,,2013-07-25 14:53:00,
2013-07-25 10:02:00,77.0,62.0,-100.00,SW,225,0.0,0.0,60,-99.99,,,-99.99,,2013-07-25 15:02:00,
2013-07-25 10:22:00,78.0,62.0,-100.00,SE,140,0.0,0.0,57,-99.99,,,-99.99,,2013-07-25 15:22:00,
2013-07-25 10:44:00,82.0,61.0,-100.00,NW,325,0.0,0.0,50,-99.99,,,-99.99,,2013-07-25 15:44:00,
2013-07-25 10:53:00,82.0,61.0,-100.00,NW,325,0.0,0.0,50,-99.99,,,-99.99,,2013-07-25 15:53:00,
2013-07-25 11:22:00,83.0,61.0,-100.00,WNW,295,0.0,0.0,47,-99.99,,,-99.99,,2013-07-25 16:22:00,
2013-07-25 11:45:00,85.0,60.0,-100.00,West,260,0.0,0.0,44,-99.99,,,-99.99,,2013-07-25 16:45:00,
2013-07-25 11:53:00,85.0,60.0,-100.00,West,260,0.0,0.0,44,-99.99,,,-99.99,,2013-07-25 16:53:00,
2013-07-25 12:12:00,86.0,61.0,-100.00,SSE,150,0.0,0.0,44,-99.99,,,-99.99,,2013-07-25 17:12:00,
2013-07-25 12:22:00,86.0,61.0,-100.00,SSE,150,0.0,0.0,44,-99.99,,,-99.99,,2013-07-25 17:22:00,
2013-07-25 12:43:00,87.0,61.0,-100.00,WNW,285,0.0,0.0,41,-99.99,,,-99.99,,2013-07-25 17:43:00,
2013-07-25 12:53:00,87.0,61.0,-100.00,WNW,285,0.0,0.0,41,-99.99,,,-99.99,,2013-07-25 17:53:00,
2013-07-25 13:12:00,87.0,61.0,-100.00,East,95,0.0,0.0,41,-99.99,,,-99.99,,2013-07-25 18:12:00,
2013-07-25 13:22:00,87.0,61.0,-100.00,East,95,0.0,0.0,41,-99.99,,,-99.99,,2013-07-25 18:22:00,
2013-07-25 13:52:00,88.0,61.0,-100.00,NNW,340,0.0,0.0,41,-99.99,,,-99.99,,2013-07-25 18:52:00,
2013-07-25 14:12:00,89.0,62.0,-100.00,North,350,0.0,0.0,41,-99.99,,,-99.99,,2013-07-25 19:12:00,
2013-07-25 14:22:00,89.0,62.0,-100.00,North,350,0.0,0.0,41,-99.99,,,-99.99,,2013-07-25 19:22:00,
2013-07-25 14:33:00,89.0,62.0,-100.00,North,350,0.0,0.0,41,-99.99,,,-99.99,,2013-07-25 19:33:00,
2013-07-25 14:43:00,88.0,62.0,-100.00,North,355,0.0,0.0,42,-99.99,,,-99.99,,2013-07-25 19:43:00,
2013-07-25 14:53:00,88.0,62.0,-100.00,North,355,0.0,0.0,42,-99.99,,,-99.99,,2013-07-25 19:53:00,
2013-07-25 15:12:00,84.0,59.0,-100.00,SSW,210,0.0,0.0,44,-99.99,,,-99.99,,2013-07-25 20:12:00,
2013-07-25 15:22:00,84.0,59.0,-100.00,SSW,210,0.0,0.0,44,-99.99,,,-99.99,,2013-07-25 20:22:00,
2013-07-25 15:43:00,82.0,61.0,-100.00,South,180,0.0,0.0,48,-99.99,,,-99.99,,2013-07-25 20:43:00,
2013-07-25 15:54:00,82.0,61.0,-100.00,South,180,0.0,0.0,48,-99.99,,,-99.99,,2013-07-25 20:54:00,
2013-07-25 16:03:00,84.0,62.0,-100.00,South,175,0.0,0.0,48,-99.99,,,-99.99,,2013-07-25 21:03:00,
2013-07-25 16:22:00,83.0,62.0,-100.00,SW,220,0.0,0.0,48,-99.99,,,-99.99,,2013-07-25 21:22:00,
2013-07-25 16:52:00,82.0,61.0,-100.00,SW,225,0.0,0.0,50,-99.99,,,-99.99,,2013-07-25 21:52:00,
2013-07-25 17:12:00,80.0,62.0,-100.00,SW,230,0.0,0.0,54,-99.99,,,-99.99,,2013-07-25 22:12:00,
2013-07-25 17:22:00,80.0,62.0,-100.00,SW,230,0.0,0.0,54,-99.99,,,-99.99,,2013-07-25 22:22:00,
2013-07-25 17:43:00,80.0,62.0,-100.00,South,180,0.0,0.0,56,-99.99,,,-99.99,,2013-07-25 22:43:00,
2013-07-25 17:53:00,80.0,62.0,-100.00,South,180,0.0,0.0,56,-99.99,,,-99.99,,2013-07-25 22:53:00,
2013-07-25 18:22:00,78.0,62.0,-100.00,SSE,160,0.0,0.0,58,-99.99,,,-99.99,,2013-07-25 23:22:00,
2013-07-25 18:43:00,78.0,64.0,-100.00,South,185,0.0,0.0,62,-99.99,,,-99.99,,2013-07-25 23:43:00,
2013-07-25 18:52:00,78.0,64.0,-100.00,South,185,0.0,0.0,62,-99.99,,,-99.99,,2013-07-25 23:52:00,
2013-07-25 19:02:00,78.0,64.0,-100.00,South,185,0.0,0.0,64,-99.99,,,-99.99,,2013-07-26 00:02:00,
2013-07-25 19:12:00,77.0,64.0,-100.00,South,180,0.0,0.0,65,-99.99,,,-99.99,,2013-07-26 00:12:00,
2013-07-25 19:22:00,77.0,64.0,-100.00,South,180,0.0,0.0,65,-99.99,,,-99.99,,2013-07-26 00:22:00,
2013-07-25 19:52:00,76.0,64.0,-100.00,South,180,0.0,0.0,67,-99.99,,,-99.99,,2013-07-26 00:52:00,
2013-07-25 20:12:00,75.0,64.0,-100.00,SSE,165,0.0,0.0,69,-99.99,,,-99.99,,2013-07-26 01:12:00,
2013-07-25 20:22:00,75.0,64.0,-100.00,SSE,165,0.0,0.0,69,-99.99,,,-99.99,,2013-07-26 01:22:00,
2013-07-25 20:32:00,74.0,65.0,-100.00,SSE,165,0.0,0.0,73,-99.99,,,-99.99,,2013-07-26 01:32:00,
2013-07-25 20:43:00,73.0,66.0,-100.00,South,180,0.0,0.0,77,-99.99,,,-99.99,,2013-07-26 01:43:00,
2013-07-25 20:52:00,73.0,66.0,-100.00,South,180,0.0,0.0,77,-99.99,,,-99.99,,2013-07-26 01:52:00,
2013-07-25 21:12:00,73.0,67.0,-100.00,SSE,160,0.0,0.0,81,-99.99,,,-99.99,,2013-07-26 02:12:00,
2013-07-25 21:22:00,73.0,67.0,-100.00,SSE,160,0.0,0.0,81,-99.99,,,-99.99,,2013-07-26 02:22:00,
2013-07-25 21:32:00,73.0,67.0,-100.00,SSE,150,0.0,0.0,81,-99.99,,,-99.99,,2013-07-26 02:32:00,
2013-07-25 21:43:00,72.0,66.0,-100.00,SSE,150,0.0,0.0,81,-99.99,,,-99.99,,2013-07-26 02:43:00,
2013-07-25 21:52:00,72.0,66.0,-100.00,SSE,150,0.0,0.0,81,-99.99,,,-99.99,,2013-07-26 02:52:00,
2013-07-25 22:12:00,70.0,66.0,-100.00,South,175,0.0,0.0,88,-99.99,,,-99.99,,2013-07-26 03:12:00,
2013-07-25 22:22:00,70.0,66.0,-100.00,South,175,0.0,0.0,88,-99.99,,,-99.99,,2013-07-26 03:22:00,
2013-07-25 22:32:00,69.0,66.0,-100.00,SSE,165,0.0,0.0,90,-99.99,,,-99.99,,2013-07-26 03:32:00,
2013-07-25 23:12:00,68.0,66.0,-100.00,SSE,160,0.0,0.0,94,-99.99,,,-99.99,,2013-07-26 04:12:00,
2013-07-25 23:22:00,68.0,66.0,-100.00,SSE,160,0.0,0.0,94,-99.99,,,-99.99,,2013-07-26 04:22:00,
2013-07-25 23:42:00,68.0,66.0,-100.00,SSE,165,0.0,0.0,94,-99.99,,,-99.99,,2013-07-26 04:42:00,
2013-07-25 23:53:00,68.0,66.0,-100.00,SSE,165,0.0,0.0,94,-99.99,,,-99.99,,2013-07-26 04:53:00,